sensor_id;sensor_type;location;lat;lon;timestamp;P1;durP1;ratioP1;P2;durP2;ratioP2
1366;SDS011;16877;48.810;9.282;2022-08-01T00:01:07;3.73;;;2.30;;
1366;SDS011;16877;48.810;9.282;2022-08-01T00:03:33;3.30;;;2.20;;
1366;SDS011;16877;48.810;9.282;2022-08-01T00:06:00;2.60;;;2.00;;
1366;SDS011;16877;48.810;9.282;2022-08-01T00:08:27;2.80;;;2.20;;
1366;SDS011;16877;48.810;9.282;2022-08-01T00:10:55;4.60;;;2.70;;
1366;SDS011;16877;48.810;9.282;2022-08-01T00:13:21;3.57;;;2.47;;
1366;SDS011;16877;48.810;9.282;2022-08-01T00:15:48;3.73;;;2.40;;
1366;SDS011;16877;48.810;9.282;2022-08-01T00:18:14;3.77;;;2.80;;
1366;SDS011;16877;48.810;9.282;2022-08-01T00:20:41;2.83;;;2.13;;
1366;SDS011;16877;48.810;9.282;2022-08-01T00:23:08;3.60;;;2.47;;
1366;SDS011;16877;48.810;9.282;2022-08-01T00:25:34;5.80;;;2.70;;
1366;SDS011;16877;48.810;9.282;2022-08-01T00:28:03;3.17;;;2.30;;
1366;SDS011;16877;48.810;9.282;2022-08-01T00:30:33;2.87;;;2.40;;
1366;SDS011;16877;48.810;9.282;2022-08-01T00:33:00;2.93;;;2.20;;
1366;SDS011;16877;48.810;9.282;2022-08-01T00:35:26;3.63;;;2.67;;
1366;SDS011;16877;48.810;9.282;2022-08-01T00:37:53;3.50;;;2.70;;
1366;SDS011;16877;48.810;9.282;2022-08-01T00:40:20;3.27;;;2.27;;
1366;SDS011;16877;48.810;9.282;2022-08-01T00:42:47;2.80;;;1.90;;
1366;SDS011;16877;48.810;9.282;2022-08-01T00:45:15;3.20;;;2.87;;
1366;SDS011;16877;48.810;9.282;2022-08-01T00:47:41;6.40;;;2.63;;
1366;SDS011;16877;48.810;9.282;2022-08-01T00:50:08;2.83;;;2.43;;
1366;SDS011;16877;48.810;9.282;2022-08-01T00:52:36;3.30;;;2.60;;
1366;SDS011;16877;48.810;9.282;2022-08-01T00:55:03;3.33;;;2.63;;
1366;SDS011;16877;48.810;9.282;2022-08-01T00:57:30;2.87;;;2.57;;
1366;SDS011;16877;48.810;9.282;2022-08-01T00:59:58;3.80;;;2.60;;
1366;SDS011;16877;48.810;9.282;2022-08-01T01:02:26;3.00;;;2.30;;
1366;SDS011;16877;48.810;9.282;2022-08-01T01:04:52;3.20;;;2.53;;
1366;SDS011;16877;48.810;9.282;2022-08-01T01:07:21;3.07;;;2.47;;
1366;SDS011;16877;48.810;9.282;2022-08-01T01:09:56;5.57;;;2.60;;
1366;SDS011;16877;48.810;9.282;2022-08-01T01:12:27;3.43;;;2.80;;
1366;SDS011;16877;48.810;9.282;2022-08-01T01:14:57;3.03;;;2.47;;
1366;SDS011;16877;48.810;9.282;2022-08-01T01:17:32;3.60;;;2.40;;
1366;SDS011;16877;48.810;9.282;2022-08-01T01:20:03;3.40;;;2.43;;
1366;SDS011;16877;48.810;9.282;2022-08-01T01:22:45;4.50;;;2.70;;
1366;SDS011;16877;48.810;9.282;2022-08-01T01:25:24;3.30;;;2.67;;
1366;SDS011;16877;48.810;9.282;2022-08-01T01:28:02;4.33;;;2.40;;
1366;SDS011;16877;48.810;9.282;2022-08-01T01:30:35;2.90;;;2.60;;
1366;SDS011;16877;48.810;9.282;2022-08-01T01:33:05;4.07;;;2.60;;
1366;SDS011;16877;48.810;9.282;2022-08-01T01:35:35;5.13;;;2.50;;
1366;SDS011;16877;48.810;9.282;2022-08-01T01:38:12;3.10;;;2.50;;
1366;SDS011;16877;48.810;9.282;2022-08-01T01:40:43;3.83;;;3.00;;
1366;SDS011;16877;48.810;9.282;2022-08-01T01:43:11;3.07;;;2.77;;
1366;SDS011;16877;48.810;9.282;2022-08-01T01:45:42;2.60;;;2.40;;
1366;SDS011;16877;48.810;9.282;2022-08-01T01:48:12;3.27;;;2.70;;
1366;SDS011;16877;48.810;9.282;2022-08-01T01:50:40;3.70;;;2.40;;
1366;SDS011;16877;48.810;9.282;2022-08-01T01:53:08;6.03;;;2.57;;
1366;SDS011;16877;48.810;9.282;2022-08-01T01:55:38;6.30;;;2.80;;
1366;SDS011;16877;48.810;9.282;2022-08-01T01:58:06;3.27;;;2.83;;
1366;SDS011;16877;48.810;9.282;2022-08-01T02:00:34;4.27;;;2.23;;
1366;SDS011;16877;48.810;9.282;2022-08-01T02:03:04;3.10;;;2.33;;
1366;SDS011;16877;48.810;9.282;2022-08-01T02:05:32;4.00;;;2.40;;
1366;SDS011;16877;48.810;9.282;2022-08-01T02:08:01;3.40;;;2.60;;
1366;SDS011;16877;48.810;9.282;2022-08-01T02:10:30;3.70;;;2.17;;
1366;SDS011;16877;48.810;9.282;2022-08-01T02:12:58;3.40;;;2.53;;
1366;SDS011;16877;48.810;9.282;2022-08-01T02:15:26;3.80;;;2.67;;
1366;SDS011;16877;48.810;9.282;2022-08-01T02:17:55;3.43;;;2.60;;
1366;SDS011;16877;48.810;9.282;2022-08-01T02:20:24;2.83;;;2.43;;
1366;SDS011;16877;48.810;9.282;2022-08-01T02:22:56;3.83;;;3.00;;
1366;SDS011;16877;48.810;9.282;2022-08-01T02:25:29;3.37;;;2.80;;
1366;SDS011;16877;48.810;9.282;2022-08-01T02:28:01;3.53;;;2.57;;
1366;SDS011;16877;48.810;9.282;2022-08-01T02:30:31;3.50;;;2.33;;
1366;SDS011;16877;48.810;9.282;2022-08-01T02:33:01;3.30;;;2.30;;
1366;SDS011;16877;48.810;9.282;2022-08-01T02:35:32;4.13;;;2.97;;
1366;SDS011;16877;48.810;9.282;2022-08-01T02:38:03;3.27;;;2.63;;
1366;SDS011;16877;48.810;9.282;2022-08-01T02:40:36;3.40;;;2.67;;
1366;SDS011;16877;48.810;9.282;2022-08-01T02:43:06;2.90;;;2.60;;
1366;SDS011;16877;48.810;9.282;2022-08-01T02:45:35;2.90;;;2.20;;
1366;SDS011;16877;48.810;9.282;2022-08-01T02:48:08;3.53;;;2.50;;
1366;SDS011;16877;48.810;9.282;2022-08-01T02:50:41;3.73;;;2.27;;
1366;SDS011;16877;48.810;9.282;2022-08-01T02:53:11;5.07;;;3.00;;
1366;SDS011;16877;48.810;9.282;2022-08-01T02:55:39;2.70;;;2.23;;
1366;SDS011;16877;48.810;9.282;2022-08-01T02:58:10;4.10;;;3.00;;
1366;SDS011;16877;48.810;9.282;2022-08-01T03:00:38;3.83;;;3.03;;
1366;SDS011;16877;48.810;9.282;2022-08-01T03:03:05;3.53;;;2.60;;
1366;SDS011;16877;48.810;9.282;2022-08-01T03:05:34;4.47;;;2.87;;
1366;SDS011;16877;48.810;9.282;2022-08-01T03:08:03;3.90;;;2.70;;
1366;SDS011;16877;48.810;9.282;2022-08-01T03:10:33;4.17;;;2.87;;
1366;SDS011;16877;48.810;9.282;2022-08-01T03:13:02;2.30;;;2.00;;
1366;SDS011;16877;48.810;9.282;2022-08-01T03:15:31;4.70;;;2.87;;
1366;SDS011;16877;48.810;9.282;2022-08-01T03:18:00;3.63;;;2.90;;
1366;SDS011;16877;48.810;9.282;2022-08-01T03:20:28;3.53;;;2.60;;
1366;SDS011;16877;48.810;9.282;2022-08-01T03:22:56;3.10;;;2.50;;
1366;SDS011;16877;48.810;9.282;2022-08-01T03:25:27;2.83;;;2.27;;
1366;SDS011;16877;48.810;9.282;2022-08-01T03:27:55;3.40;;;2.97;;
1366;SDS011;16877;48.810;9.282;2022-08-01T03:30:25;5.17;;;2.97;;
1366;SDS011;16877;48.810;9.282;2022-08-01T03:32:53;5.07;;;2.60;;
1366;SDS011;16877;48.810;9.282;2022-08-01T03:35:20;3.90;;;2.80;;
1366;SDS011;16877;48.810;9.282;2022-08-01T03:37:50;3.07;;;2.77;;
1366;SDS011;16877;48.810;9.282;2022-08-01T03:40:20;3.00;;;2.40;;
1366;SDS011;16877;48.810;9.282;2022-08-01T03:42:53;3.33;;;2.30;;
1366;SDS011;16877;48.810;9.282;2022-08-01T03:45:25;3.20;;;2.20;;
1366;SDS011;16877;48.810;9.282;2022-08-01T03:47:55;3.77;;;2.70;;
1366;SDS011;16877;48.810;9.282;2022-08-01T03:50:26;3.50;;;2.80;;
1366;SDS011;16877;48.810;9.282;2022-08-01T03:52:54;3.37;;;2.60;;
1366;SDS011;16877;48.810;9.282;2022-08-01T03:55:25;3.20;;;2.30;;
1366;SDS011;16877;48.810;9.282;2022-08-01T03:57:53;3.43;;;2.70;;
1366;SDS011;16877;48.810;9.282;2022-08-01T04:00:21;3.10;;;2.70;;
1366;SDS011;16877;48.810;9.282;2022-08-01T04:02:49;3.80;;;2.77;;
1366;SDS011;16877;48.810;9.282;2022-08-01T04:05:17;3.20;;;2.73;;
1366;SDS011;16877;48.810;9.282;2022-08-01T04:07:45;3.07;;;2.73;;
1366;SDS011;16877;48.810;9.282;2022-08-01T04:10:12;3.23;;;2.70;;
1366;SDS011;16877;48.810;9.282;2022-08-01T04:12:39;2.87;;;2.00;;
1366;SDS011;16877;48.810;9.282;2022-08-01T04:15:08;2.80;;;2.40;;
1366;SDS011;16877;48.810;9.282;2022-08-01T04:17:34;2.93;;;2.47;;
1366;SDS011;16877;48.810;9.282;2022-08-01T04:20:01;3.63;;;2.37;;
1366;SDS011;16877;48.810;9.282;2022-08-01T04:22:28;3.03;;;2.20;;
1366;SDS011;16877;48.810;9.282;2022-08-01T04:24:55;2.80;;;2.40;;
1366;SDS011;16877;48.810;9.282;2022-08-01T04:27:25;2.63;;;2.33;;
1366;SDS011;16877;48.810;9.282;2022-08-01T04:29:56;2.53;;;2.23;;
1366;SDS011;16877;48.810;9.282;2022-08-01T04:32:26;3.57;;;2.80;;
1366;SDS011;16877;48.810;9.282;2022-08-01T04:34:56;3.70;;;2.40;;
1366;SDS011;16877;48.810;9.282;2022-08-01T04:37:25;3.37;;;2.90;;
1366;SDS011;16877;48.810;9.282;2022-08-01T04:39:55;2.90;;;2.37;;
1366;SDS011;16877;48.810;9.282;2022-08-01T04:42:24;4.40;;;2.80;;
1366;SDS011;16877;48.810;9.282;2022-08-01T04:44:51;3.73;;;2.17;;
1366;SDS011;16877;48.810;9.282;2022-08-01T04:47:18;2.50;;;2.00;;
1366;SDS011;16877;48.810;9.282;2022-08-01T04:49:47;2.97;;;2.47;;
1366;SDS011;16877;48.810;9.282;2022-08-01T04:52:14;4.50;;;2.40;;
1366;SDS011;16877;48.810;9.282;2022-08-01T04:54:42;3.40;;;2.67;;
1366;SDS011;16877;48.810;9.282;2022-08-01T04:57:11;4.30;;;2.10;;
1366;SDS011;16877;48.810;9.282;2022-08-01T04:59:41;3.20;;;2.40;;
1366;SDS011;16877;48.810;9.282;2022-08-01T05:02:10;5.07;;;2.70;;
1366;SDS011;16877;48.810;9.282;2022-08-01T05:04:38;3.33;;;2.63;;
1366;SDS011;16877;48.810;9.282;2022-08-01T05:07:07;2.70;;;2.03;;
1366;SDS011;16877;48.810;9.282;2022-08-01T05:09:34;2.93;;;2.27;;
1366;SDS011;16877;48.810;9.282;2022-08-01T05:12:02;3.90;;;2.37;;
1366;SDS011;16877;48.810;9.282;2022-08-01T05:14:30;2.60;;;2.00;;
1366;SDS011;16877;48.810;9.282;2022-08-01T05:16:58;2.77;;;2.33;;
1366;SDS011;16877;48.810;9.282;2022-08-01T05:19:25;2.60;;;1.70;;
1366;SDS011;16877;48.810;9.282;2022-08-01T05:21:51;5.07;;;2.33;;
1366;SDS011;16877;48.810;9.282;2022-08-01T05:24:19;3.07;;;1.90;;
1366;SDS011;16877;48.810;9.282;2022-08-01T05:26:47;4.47;;;2.67;;
1366;SDS011;16877;48.810;9.282;2022-08-01T05:29:14;2.87;;;2.20;;
1366;SDS011;16877;48.810;9.282;2022-08-01T05:31:41;2.77;;;2.07;;
1366;SDS011;16877;48.810;9.282;2022-08-01T05:34:07;2.70;;;2.07;;
1366;SDS011;16877;48.810;9.282;2022-08-01T05:36:34;3.73;;;2.20;;
1366;SDS011;16877;48.810;9.282;2022-08-01T05:39:02;3.10;;;2.60;;
1366;SDS011;16877;48.810;9.282;2022-08-01T05:41:30;3.27;;;2.27;;
1366;SDS011;16877;48.810;9.282;2022-08-01T05:43:57;2.50;;;2.00;;
1366;SDS011;16877;48.810;9.282;2022-08-01T05:46:24;3.93;;;2.77;;
1366;SDS011;16877;48.810;9.282;2022-08-01T05:48:50;2.43;;;1.87;;
1366;SDS011;16877;48.810;9.282;2022-08-01T05:51:17;3.40;;;2.07;;
1366;SDS011;16877;48.810;9.282;2022-08-01T05:53:44;3.03;;;2.10;;
1366;SDS011;16877;48.810;9.282;2022-08-01T05:56:10;2.53;;;1.83;;
1366;SDS011;16877;48.810;9.282;2022-08-01T05:58:38;3.33;;;2.30;;
1366;SDS011;16877;48.810;9.282;2022-08-01T06:01:05;3.10;;;2.50;;
1366;SDS011;16877;48.810;9.282;2022-08-01T06:03:32;3.57;;;2.10;;
1366;SDS011;16877;48.810;9.282;2022-08-01T06:05:59;4.67;;;2.10;;
1366;SDS011;16877;48.810;9.282;2022-08-01T06:08:25;4.70;;;2.33;;
1366;SDS011;16877;48.810;9.282;2022-08-01T06:10:52;4.27;;;2.60;;
1366;SDS011;16877;48.810;9.282;2022-08-01T06:13:19;5.10;;;2.47;;
1366;SDS011;16877;48.810;9.282;2022-08-01T06:15:47;4.70;;;2.30;;
1366;SDS011;16877;48.810;9.282;2022-08-01T06:18:14;3.33;;;2.20;;
1366;SDS011;16877;48.810;9.282;2022-08-01T06:20:41;4.70;;;2.30;;
1366;SDS011;16877;48.810;9.282;2022-08-01T06:23:08;3.43;;;2.23;;
1366;SDS011;16877;48.810;9.282;2022-08-01T06:25:35;2.27;;;1.37;;
1366;SDS011;16877;48.810;9.282;2022-08-01T06:28:02;2.27;;;1.50;;
1366;SDS011;16877;48.810;9.282;2022-08-01T06:30:29;2.43;;;1.63;;
1366;SDS011;16877;48.810;9.282;2022-08-01T06:32:57;3.17;;;1.70;;
1366;SDS011;16877;48.810;9.282;2022-08-01T06:35:25;3.50;;;1.80;;
1366;SDS011;16877;48.810;9.282;2022-08-01T06:37:52;4.77;;;1.67;;
1366;SDS011;16877;48.810;9.282;2022-08-01T06:40:18;2.80;;;1.70;;
1366;SDS011;16877;48.810;9.282;2022-08-01T06:42:45;4.07;;;2.10;;
1366;SDS011;16877;48.810;9.282;2022-08-01T06:45:12;2.57;;;1.33;;
1366;SDS011;16877;48.810;9.282;2022-08-01T06:47:40;1.80;;;1.20;;
1366;SDS011;16877;48.810;9.282;2022-08-01T06:50:09;2.93;;;1.43;;
1366;SDS011;16877;48.810;9.282;2022-08-01T06:52:36;2.20;;;1.60;;
1366;SDS011;16877;48.810;9.282;2022-08-01T06:55:03;2.50;;;1.27;;
1366;SDS011;16877;48.810;9.282;2022-08-01T06:57:31;3.30;;;1.50;;
1366;SDS011;16877;48.810;9.282;2022-08-01T07:00:00;2.60;;;1.43;;
1366;SDS011;16877;48.810;9.282;2022-08-01T07:02:30;2.43;;;1.37;;
1366;SDS011;16877;48.810;9.282;2022-08-01T07:04:57;5.17;;;1.43;;
1366;SDS011;16877;48.810;9.282;2022-08-01T07:07:26;2.40;;;1.47;;
1366;SDS011;16877;48.810;9.282;2022-08-01T07:09:53;2.60;;;1.40;;
1366;SDS011;16877;48.810;9.282;2022-08-01T07:12:19;2.50;;;1.40;;
1366;SDS011;16877;48.810;9.282;2022-08-01T07:14:46;2.30;;;1.60;;
1366;SDS011;16877;48.810;9.282;2022-08-01T07:17:13;3.07;;;1.40;;
1366;SDS011;16877;48.810;9.282;2022-08-01T07:19:40;1.93;;;1.23;;
1366;SDS011;16877;48.810;9.282;2022-08-01T07:22:06;3.13;;;1.33;;
1366;SDS011;16877;48.810;9.282;2022-08-01T07:24:34;2.00;;;1.53;;
1366;SDS011;16877;48.810;9.282;2022-08-01T07:27:01;2.53;;;1.47;;
1366;SDS011;16877;48.810;9.282;2022-08-01T07:29:27;2.50;;;1.30;;
1366;SDS011;16877;48.810;9.282;2022-08-01T07:31:55;2.97;;;1.80;;
1366;SDS011;16877;48.810;9.282;2022-08-01T07:34:23;2.80;;;1.60;;
1366;SDS011;16877;48.810;9.282;2022-08-01T07:36:51;3.70;;;1.60;;
1366;SDS011;16877;48.810;9.282;2022-08-01T07:39:18;2.63;;;1.40;;
1366;SDS011;16877;48.810;9.282;2022-08-01T07:41:46;3.40;;;1.70;;
1366;SDS011;16877;48.810;9.282;2022-08-01T07:44:13;2.20;;;1.50;;
1366;SDS011;16877;48.810;9.282;2022-08-01T07:46:40;3.10;;;1.80;;
1366;SDS011;16877;48.810;9.282;2022-08-01T07:49:07;2.30;;;1.70;;
1366;SDS011;16877;48.810;9.282;2022-08-01T07:51:34;4.33;;;1.47;;
1366;SDS011;16877;48.810;9.282;2022-08-01T07:54:00;2.67;;;1.93;;
1366;SDS011;16877;48.810;9.282;2022-08-01T07:56:27;3.00;;;1.90;;
1366;SDS011;16877;48.810;9.282;2022-08-01T07:58:55;2.60;;;1.67;;
1366;SDS011;16877;48.810;9.282;2022-08-01T08:01:22;3.57;;;1.60;;
1366;SDS011;16877;48.810;9.282;2022-08-01T08:03:48;3.20;;;1.97;;
1366;SDS011;16877;48.810;9.282;2022-08-01T08:06:15;2.20;;;1.43;;
1366;SDS011;16877;48.810;9.282;2022-08-01T08:08:42;3.07;;;1.87;;
1366;SDS011;16877;48.810;9.282;2022-08-01T08:11:08;2.77;;;1.43;;
1366;SDS011;16877;48.810;9.282;2022-08-01T08:13:35;2.50;;;1.63;;
1366;SDS011;16877;48.810;9.282;2022-08-01T08:16:03;2.93;;;1.60;;
1366;SDS011;16877;48.810;9.282;2022-08-01T08:18:30;2.57;;;1.90;;
1366;SDS011;16877;48.810;9.282;2022-08-01T08:20:57;3.30;;;1.80;;
1366;SDS011;16877;48.810;9.282;2022-08-01T08:23:23;3.20;;;1.77;;
1366;SDS011;16877;48.810;9.282;2022-08-01T08:26:07;2.90;;;1.80;;
1366;SDS011;16877;48.810;9.282;2022-08-01T08:28:34;3.40;;;1.93;;
1366;SDS011;16877;48.810;9.282;2022-08-01T08:31:01;2.70;;;1.80;;
1366;SDS011;16877;48.810;9.282;2022-08-01T08:33:29;3.00;;;2.00;;
1366;SDS011;16877;48.810;9.282;2022-08-01T08:35:56;2.83;;;2.17;;
1366;SDS011;16877;48.810;9.282;2022-08-01T08:38:23;3.13;;;1.97;;
1366;SDS011;16877;48.810;9.282;2022-08-01T08:40:52;4.13;;;2.63;;
1366;SDS011;16877;48.810;9.282;2022-08-01T08:43:19;3.67;;;2.50;;
1366;SDS011;16877;48.810;9.282;2022-08-01T08:45:46;2.67;;;2.17;;
1366;SDS011;16877;48.810;9.282;2022-08-01T08:48:13;4.63;;;2.10;;
1366;SDS011;16877;48.810;9.282;2022-08-01T08:50:41;2.60;;;2.17;;
1366;SDS011;16877;48.810;9.282;2022-08-01T08:53:11;4.63;;;2.27;;
1366;SDS011;16877;48.810;9.282;2022-08-01T08:55:40;3.60;;;2.10;;
1366;SDS011;16877;48.810;9.282;2022-08-01T08:58:09;3.67;;;1.90;;
1366;SDS011;16877;48.810;9.282;2022-08-01T09:00:38;3.27;;;2.60;;
1366;SDS011;16877;48.810;9.282;2022-08-01T09:03:05;3.90;;;2.13;;
1366;SDS011;16877;48.810;9.282;2022-08-01T09:05:32;6.63;;;2.90;;
1366;SDS011;16877;48.810;9.282;2022-08-01T09:08:01;4.20;;;2.60;;
1366;SDS011;16877;48.810;9.282;2022-08-01T09:10:27;3.13;;;2.50;;
1366;SDS011;16877;48.810;9.282;2022-08-01T09:13:04;3.57;;;2.60;;
1366;SDS011;16877;48.810;9.282;2022-08-01T09:15:42;3.50;;;2.50;;
1366;SDS011;16877;48.810;9.282;2022-08-01T09:21:12;3.17;;;2.57;;
1366;SDS011;16877;48.810;9.282;2022-08-01T09:23:43;3.60;;;2.60;;
1366;SDS011;16877;48.810;9.282;2022-08-01T09:26:13;4.23;;;2.97;;
1366;SDS011;16877;48.810;9.282;2022-08-01T09:28:41;2.70;;;2.00;;
1366;SDS011;16877;48.810;9.282;2022-08-01T09:31:10;2.63;;;1.90;;
1366;SDS011;16877;48.810;9.282;2022-08-01T09:33:51;4.47;;;2.40;;
1366;SDS011;16877;48.810;9.282;2022-08-01T09:36:19;3.37;;;2.33;;
1366;SDS011;16877;48.810;9.282;2022-08-01T09:38:49;2.67;;;2.33;;
1366;SDS011;16877;48.810;9.282;2022-08-01T09:41:16;6.00;;;3.37;;
1366;SDS011;16877;48.810;9.282;2022-08-01T09:43:47;3.33;;;2.87;;
1366;SDS011;16877;48.810;9.282;2022-08-01T09:46:15;3.47;;;3.07;;
1366;SDS011;16877;48.810;9.282;2022-08-01T09:48:54;3.73;;;3.03;;
1366;SDS011;16877;48.810;9.282;2022-08-01T09:51:28;5.97;;;3.30;;
1366;SDS011;16877;48.810;9.282;2022-08-01T09:53:58;4.27;;;3.10;;
1366;SDS011;16877;48.810;9.282;2022-08-01T09:56:25;3.70;;;2.57;;
1366;SDS011;16877;48.810;9.282;2022-08-01T09:58:52;4.57;;;3.20;;
1366;SDS011;16877;48.810;9.282;2022-08-01T10:01:21;4.70;;;3.00;;
1366;SDS011;16877;48.810;9.282;2022-08-01T10:04:03;5.83;;;3.00;;
1366;SDS011;16877;48.810;9.282;2022-08-01T10:06:34;4.37;;;3.67;;
1366;SDS011;16877;48.810;9.282;2022-08-01T10:09:03;5.60;;;3.80;;
1366;SDS011;16877;48.810;9.282;2022-08-01T10:11:29;4.63;;;4.20;;
1366;SDS011;16877;48.810;9.282;2022-08-01T10:13:58;5.50;;;5.00;;
1366;SDS011;16877;48.810;9.282;2022-08-01T10:16:26;4.13;;;3.73;;
1366;SDS011;16877;48.810;9.282;2022-08-01T10:18:54;7.50;;;3.87;;
1366;SDS011;16877;48.810;9.282;2022-08-01T10:21:21;5.50;;;5.00;;
1366;SDS011;16877;48.810;9.282;2022-08-01T10:23:50;7.67;;;4.57;;
1366;SDS011;16877;48.810;9.282;2022-08-01T10:26:21;4.63;;;4.23;;
1366;SDS011;16877;48.810;9.282;2022-08-01T10:28:51;4.20;;;3.80;;
1366;SDS011;16877;48.810;9.282;2022-08-01T10:31:20;5.13;;;4.00;;
1366;SDS011;16877;48.810;9.282;2022-08-01T10:33:47;4.47;;;4.07;;
1366;SDS011;16877;48.810;9.282;2022-08-01T10:36:16;5.63;;;3.97;;
1366;SDS011;16877;48.810;9.282;2022-08-01T10:38:44;5.20;;;3.90;;
1366;SDS011;16877;48.810;9.282;2022-08-01T10:41:11;3.93;;;3.60;;
1366;SDS011;16877;48.810;9.282;2022-08-01T10:43:41;4.63;;;3.23;;
1366;SDS011;16877;48.810;9.282;2022-08-01T10:46:08;3.20;;;2.73;;
1366;SDS011;16877;48.810;9.282;2022-08-01T10:48:39;3.10;;;2.80;;
1366;SDS011;16877;48.810;9.282;2022-08-01T10:51:11;3.70;;;3.10;;
1366;SDS011;16877;48.810;9.282;2022-08-01T10:53:45;5.57;;;3.17;;
1366;SDS011;16877;48.810;9.282;2022-08-01T10:56:12;5.20;;;3.20;;
1366;SDS011;16877;48.810;9.282;2022-08-01T10:58:41;3.40;;;3.10;;
1366;SDS011;16877;48.810;9.282;2022-08-01T11:01:17;5.90;;;4.30;;
1366;SDS011;16877;48.810;9.282;2022-08-01T11:03:55;5.20;;;3.73;;
1366;SDS011;16877;48.810;9.282;2022-08-01T11:06:25;4.00;;;3.60;;
1366;SDS011;16877;48.810;9.282;2022-08-01T11:11:59;3.90;;;3.10;;
1366;SDS011;16877;48.810;9.282;2022-08-01T11:14:31;4.67;;;3.47;;
1366;SDS011;16877;48.810;9.282;2022-08-01T11:20:06;3.03;;;2.60;;
1366;SDS011;16877;48.810;9.282;2022-08-01T11:28:35;3.37;;;2.97;;
1366;SDS011;16877;48.810;9.282;2022-08-01T11:33:54;3.50;;;3.00;;
1366;SDS011;16877;48.810;9.282;2022-08-01T11:36:21;6.37;;;3.17;;
1366;SDS011;16877;48.810;9.282;2022-08-01T11:39:10;7.47;;;4.30;;
1366;SDS011;16877;48.810;9.282;2022-08-01T11:41:42;5.30;;;3.87;;
1366;SDS011;16877;48.810;9.282;2022-08-01T11:44:11;4.17;;;3.30;;
1366;SDS011;16877;48.810;9.282;2022-08-01T11:46:51;5.67;;;3.00;;
1366;SDS011;16877;48.810;9.282;2022-08-01T11:49:30;4.30;;;3.20;;
1366;SDS011;16877;48.810;9.282;2022-08-01T11:52:11;3.90;;;2.97;;
1366;SDS011;16877;48.810;9.282;2022-08-01T11:54:41;3.17;;;2.40;;
1366;SDS011;16877;48.810;9.282;2022-08-01T11:57:10;4.73;;;2.67;;
1366;SDS011;16877;48.810;9.282;2022-08-01T11:59:39;4.07;;;2.60;;
1366;SDS011;16877;48.810;9.282;2022-08-01T12:02:19;5.20;;;2.50;;
1366;SDS011;16877;48.810;9.282;2022-08-01T12:04:48;6.03;;;2.83;;
1366;SDS011;16877;48.810;9.282;2022-08-01T12:07:17;3.40;;;2.83;;
1366;SDS011;16877;48.810;9.282;2022-08-01T12:09:44;3.27;;;2.40;;
1366;SDS011;16877;48.810;9.282;2022-08-01T12:12:14;2.73;;;2.27;;
1366;SDS011;16877;48.810;9.282;2022-08-01T12:14:43;5.07;;;2.97;;
1366;SDS011;16877;48.810;9.282;2022-08-01T12:17:10;5.53;;;2.93;;
1366;SDS011;16877;48.810;9.282;2022-08-01T12:19:38;4.40;;;2.80;;
1366;SDS011;16877;48.810;9.282;2022-08-01T12:22:07;5.30;;;2.20;;
1366;SDS011;16877;48.810;9.282;2022-08-01T12:24:35;5.73;;;2.90;;
1366;SDS011;16877;48.810;9.282;2022-08-01T12:27:03;3.70;;;2.83;;
1366;SDS011;16877;48.810;9.282;2022-08-01T12:29:31;4.23;;;3.10;;
1366;SDS011;16877;48.810;9.282;2022-08-01T12:31:59;4.23;;;2.73;;
1366;SDS011;16877;48.810;9.282;2022-08-01T12:34:25;2.93;;;2.53;;
1366;SDS011;16877;48.810;9.282;2022-08-01T12:36:55;4.37;;;2.70;;
1366;SDS011;16877;48.810;9.282;2022-08-01T12:39:28;3.73;;;2.63;;
1366;SDS011;16877;48.810;9.282;2022-08-01T12:41:56;4.23;;;2.23;;
1366;SDS011;16877;48.810;9.282;2022-08-01T12:44:23;4.30;;;2.80;;
1366;SDS011;16877;48.810;9.282;2022-08-01T12:46:51;2.80;;;2.30;;
1366;SDS011;16877;48.810;9.282;2022-08-01T12:49:18;2.83;;;2.20;;
1366;SDS011;16877;48.810;9.282;2022-08-01T12:51:45;3.50;;;2.60;;
1366;SDS011;16877;48.810;9.282;2022-08-01T12:54:13;3.20;;;2.30;;
1366;SDS011;16877;48.810;9.282;2022-08-01T12:56:40;3.07;;;2.40;;
1366;SDS011;16877;48.810;9.282;2022-08-01T12:59:19;5.17;;;2.97;;
1366;SDS011;16877;48.810;9.282;2022-08-01T13:01:49;5.20;;;2.80;;
1366;SDS011;16877;48.810;9.282;2022-08-01T13:04:15;7.73;;;2.90;;
1366;SDS011;16877;48.810;9.282;2022-08-01T13:06:42;87.27;;;47.00;;
1366;SDS011;16877;48.810;9.282;2022-08-01T13:09:09;109.47;;;54.00;;
1366;SDS011;16877;48.810;9.282;2022-08-01T13:11:39;41.90;;;21.30;;
1366;SDS011;16877;48.810;9.282;2022-08-01T13:14:06;24.77;;;15.37;;
1366;SDS011;16877;48.810;9.282;2022-08-01T13:16:34;20.93;;;6.97;;
1366;SDS011;16877;48.810;9.282;2022-08-01T13:19:12;7.17;;;4.30;;
1366;SDS011;16877;48.810;9.282;2022-08-01T13:21:39;4.30;;;2.63;;
1366;SDS011;16877;48.810;9.282;2022-08-01T13:24:23;4.90;;;3.50;;
1366;SDS011;16877;48.810;9.282;2022-08-01T13:26:53;5.50;;;3.10;;
1366;SDS011;16877;48.810;9.282;2022-08-01T13:29:32;4.40;;;2.70;;
1366;SDS011;16877;48.810;9.282;2022-08-01T13:32:00;4.20;;;2.80;;
1366;SDS011;16877;48.810;9.282;2022-08-01T13:34:37;3.90;;;2.73;;
1366;SDS011;16877;48.810;9.282;2022-08-01T13:37:04;3.83;;;2.43;;
1366;SDS011;16877;48.810;9.282;2022-08-01T13:39:31;6.37;;;2.30;;
1366;SDS011;16877;48.810;9.282;2022-08-01T13:42:08;4.20;;;2.20;;
1366;SDS011;16877;48.810;9.282;2022-08-01T13:44:35;2.97;;;2.23;;
1366;SDS011;16877;48.810;9.282;2022-08-01T13:47:02;2.70;;;2.23;;
1366;SDS011;16877;48.810;9.282;2022-08-01T13:49:29;3.30;;;2.30;;
1366;SDS011;16877;48.810;9.282;2022-08-01T13:51:56;3.63;;;2.80;;
1366;SDS011;16877;48.810;9.282;2022-08-01T13:54:23;4.07;;;2.57;;
1366;SDS011;16877;48.810;9.282;2022-08-01T13:56:50;3.60;;;2.70;;
1366;SDS011;16877;48.810;9.282;2022-08-01T13:59:19;2.70;;;1.97;;
1366;SDS011;16877;48.810;9.282;2022-08-01T14:01:46;2.97;;;2.30;;
1366;SDS011;16877;48.810;9.282;2022-08-01T14:04:14;3.40;;;1.80;;
1366;SDS011;16877;48.810;9.282;2022-08-01T14:06:41;3.53;;;1.83;;
1366;SDS011;16877;48.810;9.282;2022-08-01T14:09:08;5.57;;;2.27;;
1366;SDS011;16877;48.810;9.282;2022-08-01T14:11:35;3.33;;;1.90;;
1366;SDS011;16877;48.810;9.282;2022-08-01T14:14:02;3.03;;;2.30;;
1366;SDS011;16877;48.810;9.282;2022-08-01T14:16:30;2.77;;;1.77;;
1366;SDS011;16877;48.810;9.282;2022-08-01T14:18:57;3.17;;;1.90;;
1366;SDS011;16877;48.810;9.282;2022-08-01T14:21:24;4.50;;;1.90;;
1366;SDS011;16877;48.810;9.282;2022-08-01T14:23:50;2.87;;;2.10;;
1366;SDS011;16877;48.810;9.282;2022-08-01T14:26:17;3.03;;;1.77;;
1366;SDS011;16877;48.810;9.282;2022-08-01T14:28:44;4.27;;;2.00;;
1366;SDS011;16877;48.810;9.282;2022-08-01T14:31:10;3.37;;;2.10;;
1366;SDS011;16877;48.810;9.282;2022-08-01T14:33:38;3.03;;;1.77;;
1366;SDS011;16877;48.810;9.282;2022-08-01T14:36:05;5.37;;;2.40;;
1366;SDS011;16877;48.810;9.282;2022-08-01T14:38:32;3.60;;;2.10;;
1366;SDS011;16877;48.810;9.282;2022-08-01T14:40:59;3.60;;;2.60;;
1366;SDS011;16877;48.810;9.282;2022-08-01T14:43:28;2.93;;;1.83;;
1366;SDS011;16877;48.810;9.282;2022-08-01T14:45:56;3.30;;;2.40;;
1366;SDS011;16877;48.810;9.282;2022-08-01T14:48:23;7.10;;;1.93;;
1366;SDS011;16877;48.810;9.282;2022-08-01T14:50:51;3.53;;;2.47;;
1366;SDS011;16877;48.810;9.282;2022-08-01T14:53:18;2.47;;;1.90;;
1366;SDS011;16877;48.810;9.282;2022-08-01T14:55:45;4.00;;;2.60;;
1366;SDS011;16877;48.810;9.282;2022-08-01T14:58:12;4.20;;;1.97;;
1366;SDS011;16877;48.810;9.282;2022-08-01T15:00:39;3.47;;;2.67;;
1366;SDS011;16877;48.810;9.282;2022-08-01T15:03:06;4.67;;;2.30;;
1366;SDS011;16877;48.810;9.282;2022-08-01T15:05:32;2.50;;;1.80;;
1366;SDS011;16877;48.810;9.282;2022-08-01T15:08:00;3.20;;;2.30;;
1366;SDS011;16877;48.810;9.282;2022-08-01T15:10:27;3.70;;;2.23;;
1366;SDS011;16877;48.810;9.282;2022-08-01T15:12:54;2.87;;;1.90;;
1366;SDS011;16877;48.810;9.282;2022-08-01T15:15:21;3.60;;;1.77;;
1366;SDS011;16877;48.810;9.282;2022-08-01T15:17:50;4.57;;;2.50;;
1366;SDS011;16877;48.810;9.282;2022-08-01T15:20:17;4.27;;;1.80;;
1366;SDS011;16877;48.810;9.282;2022-08-01T15:22:44;3.20;;;2.50;;
1366;SDS011;16877;48.810;9.282;2022-08-01T15:25:14;3.70;;;2.00;;
1366;SDS011;16877;48.810;9.282;2022-08-01T15:27:40;3.10;;;1.90;;